Time;durP1;ratioP1;P1;durP2;ratioP2;P2;SDS_P1;SDS_P2;PMS_P1;PMS_P2;Temp;Humidity;BMP_temperature;BMP_pressure;BME280_temperature;BME280_humidity;BME280_pressure;Samples;Min_cycle;Max_cycle;Signal;HPM_P1;HPM_P2
2022/11/11 00:01:20;;;;;;;78.35;33.13;;;;;;;;;;5085681;27;20317;-70
2022/11/11 00:03:45;;;;;;;83.90;34.13;;;;;;;;;;5105286;27;20020;-70
2022/11/11 00:06:12;;;;;;;84.33;34.83;;;;;;;;;;5110361;27;20275;-69
2022/11/11 00:08:37;;;;;;;79.43;33.80;;;;;;;;;;5110507;27;20986;-70
2022/11/11 00:11:03;;;;;;;76.47;33.37;;;;;;;;;;5090642;28;20028;-70
2022/11/11 00:13:29;;;;;;;84.53;33.97;;;;;;;;;;5110012;27;20511;-69
2022/11/11 00:15:54;;;;;;;82.28;34.60;;;;;;;;;;5091190;28;20023;-70
2022/11/11 00:26:31;;;;;;;75.38;32.55;;;;;;;;;;5108055;27;20396;-70
2022/11/11 00:28:56;;;;;;;80.40;33.50;;;;;;;;;;5102632;27;20036;-70
2022/11/11 00:31:22;;;;;;;81.43;33.00;;;;;;;;;;5098710;28;20035;-70
2022/11/11 00:33:47;;;;;;;81.33;32.93;;;;;;;;;;5105709;27;20382;-69
2022/11/11 00:36:12;;;;;;;80.53;33.70;;;;;;;;;;5110149;27;20268;-69
2022/11/11 00:38:48;;;;;;;77.43;33.57;;;;;;;;;;5091355;28;20469;-69
2022/11/11 00:41:17;;;;;;;78.07;32.53;;;;;;;;;;5105515;27;20297;-69
2022/11/11 00:43:43;;;;;;;76.45;32.53;;;;;;;;;;5104904;27;20031;-69
2022/11/11 00:51:38;;;;;;;79.47;33.22;;;;;;;10.19;nan;101981.22;5112581;27;20522;-70
2022/11/11 00:54:03;;;;;;;81.90;34.92;;;;;;;;;;5092177;27;20389;-69
2022/11/11 00:56:28;;;;;;;81.95;32.83;;;;;;;;;;5086281;28;20024;-69
2022/11/11 00:58:54;;;;;;;82.75;34.60;;;;;;;;;;5106003;27;20455;-69
2022/11/11 01:01:19;;;;;;;76.60;32.70;;;;;;;;;;5099849;27;20684;-69
2022/11/11 01:03:44;;;;;;;83.23;33.40;;;;;;;;;;5104783;27;20295;-70
2022/11/11 01:06:12;;;;;;;81.80;34.13;;;;;;;;;;5109781;27;20637;-70
2022/11/11 01:08:38;;;;;;;77.45;32.40;;;;;;;10.21;nan;101989.75;5082027;28;20789;-70
2022/11/11 01:11:10;;;;;;;80.45;33.95;;;;;;;;;;5112187;27;20043;-70
2022/11/11 01:13:35;;;;;;;80.40;33.63;;;;;;;;;;5102822;28;20048;-70
2022/11/11 01:16:02;;;;;;;84.07;34.30;;;;;;;;;;5107912;27;20038;-70
2022/11/11 01:18:28;;;;;;;81.28;32.60;;;;;;;;;;5107193;27;20761;-70
2022/11/11 01:21:00;;;;;;;76.60;33.00;;;;;;;;;;5111845;27;20075;-70
2022/11/11 01:23:26;;;;;;;87.65;35.10;;;;;;;;;;5107035;27;20531;-70
2022/11/11 01:25:51;;;;;;;86.20;34.63;;;;;;;;;;5090978;28;20027;-70
2022/11/11 01:28:17;;;;;;;85.20;33.90;;;;;;;;;;5106054;27;20024;-70
2022/11/11 01:30:42;;;;;;;83.63;33.75;;;;;;;;;;5111302;27;20068;-70
2022/11/11 01:33:08;;;;;;;79.32;34.67;;;;;;;;;;5104819;27;20023;-70
2022/11/11 01:35:37;;;;;;;86.30;35.15;;;;;;;;;;5105011;27;20022;-70
2022/11/11 01:38:02;;;;;;;85.22;34.42;;;;;;;;;;5104080;27;20104;-69
2022/11/11 01:40:27;;;;;;;84.27;34.53;;;;;;;;;;5093316;27;20493;-70
2022/11/11 01:42:52;;;;;;;91.10;34.03;;;;;;;;;;5105530;27;20490;-70
2022/11/11 01:45:36;;;;;;;80.63;32.83;;;;;;;;;;5090318;28;20019;-70
2022/11/11 01:50:45;;;;;;;88.70;35.15;;;;;;;;;;5107376;28;20034;-70
2022/11/11 01:53:11;;;;;;;87.63;35.30;;;;;;;;;;5107591;27;20027;-70
2022/11/11 01:55:36;;;;;;;84.33;34.23;;;;;;;;;;5083867;28;20034;-70
2022/11/11 01:58:05;;;;;;;86.13;33.70;;;;;;;10.07;nan;101990.59;5085470;27;20692;-70
2022/11/11 02:00:30;;;;;;;;;;;;;;;;;;5093206;28;20035;-72
2022/11/11 02:03:03;;;;;;;91.93;34.03;;;;;;;;;;5101188;27;19916;-72
2022/11/11 02:05:46;;;;;;;88.85;34.78;;;;;;;;;;5102350;27;20027;-72
2022/11/11 02:08:31;;;;;;;91.70;35.13;;;;;;;;;;5107806;27;20030;-72
2022/11/11 02:10:58;;;;;;;90.43;35.10;;;;;;;;;;5087156;27;20027;-70
2022/11/11 02:16:07;;;;;;;88.90;34.47;;;;;;;;;;5108514;27;20022;-71
2022/11/11 02:18:33;;;;;;;88.37;34.83;;;;;;;;;;5091291;28;20016;-71
2022/11/11 02:20:58;;;;;;;80.38;34.03;;;;;;;;;;5089869;28;20039;-71
2022/11/11 02:23:31;;;;;;;88.80;34.67;;;;;;;;;;5103223;28;20031;-71
2022/11/11 02:25:58;;;;;;;91.60;36.17;;;;;;;;;;5087682;28;20043;-72
2022/11/11 02:28:24;;;;;;;92.97;35.10;;;;;;;;;;5103317;27;20042;-72
2022/11/11 02:30:49;;;;;;;91.10;34.47;;;;;;;;;;5091210;28;20489;-70
2022/11/11 02:33:15;;;;;;;88.43;35.70;;;;;;;;;;5093923;28;20032;-72
2022/11/11 02:35:43;;;;;;;91.53;34.13;;;;;;;;;;5094543;28;20027;-71
2022/11/11 02:38:10;;;;;;;94.30;36.28;;;;;;;;;;5102011;28;20473;-70
2022/11/11 02:40:37;;;;;;;90.00;34.85;;;;;;;;;;5107532;28;20015;-72
2022/11/11 02:43:02;;;;;;;87.40;35.03;;;;;;;;;;5103818;28;20245;-72
2022/11/11 02:45:27;;;;;;;89.53;34.97;;;;;;;;;;5103118;28;20024;-71
2022/11/11 02:47:53;;;;;;;89.30;35.30;;;;;;;;;;5108611;28;20028;-72
2022/11/11 02:50:18;;;;;;;98.93;35.43;;;;;;;;;;5112561;28;20446;-72
2022/11/11 02:52:43;;;;;;;97.73;35.83;;;;;;;;;;5103256;28;20340;-72
2022/11/11 02:55:08;;;;;;;88.13;34.93;;;;;;;;;;5085767;28;20276;-70
2022/11/11 02:57:34;;;;;;;88.28;34.85;;;;;;;;;;5103338;28;20035;-72
2022/11/11 03:00:01;;;;;;;86.72;35.53;;;;;;;10.07;nan;101993.22;5095562;28;20461;-71
2022/11/11 03:02:27;;;;;;;89.10;35.13;;;;;;;;;;5085500;28;20036;-70
2022/11/11 03:04:56;;;;;;;92.18;35.80;;;;;;;;;;5094883;28;20035;-72
2022/11/11 03:07:22;;;;;;;89.13;34.40;;;;;;;;;;5102401;28;20038;-71
2022/11/11 03:09:47;;;;;;;95.47;36.80;;;;;;;;;;5105119;28;20448;-72
2022/11/11 03:12:13;;;;;;;95.38;37.72;;;;;;;;;;5107782;28;20123;-72
2022/11/11 03:14:38;;;;;;;88.32;35.47;;;;;;;;;;5091109;28;20081;-72
2022/11/11 03:19:47;;;;;;;92.70;38.60;;;;;;;;;;5108867;28;20427;-72
2022/11/11 03:22:12;;;;;;;101.73;39.00;;;;;;;;;;5103730;28;20039;-71
2022/11/11 03:27:21;;;;;;;92.43;37.22;;;;;;;;;;5104184;28;20314;-72
2022/11/11 03:29:47;;;;;;;95.67;39.37;;;;;;;;;;5105334;28;20032;-71
2022/11/11 03:32:12;;;;;;;96.57;39.13;;;;;;;;;;5105474;28;20024;-70
2022/11/11 03:34:38;;;;;;;93.45;36.05;;;;;;;;;;5106128;28;20034;-71
2022/11/11 03:39:48;;;;;;;91.60;36.60;;;;;;;;;;5109756;27;20131;-72
2022/11/11 03:42:13;;;;;;;92.60;36.67;;;;;;;;;;5105232;28;20106;-72
2022/11/11 03:44:38;;;;;;;89.77;36.80;;;;;;;;;;5104284;27;20055;-70
2022/11/11 03:47:03;;;;;;;97.43;36.90;;;;;;;;;;5113409;27;20534;-72
2022/11/11 03:49:29;;;;;;;89.53;35.73;;;;;;;;;;5111299;27;20281;-70
2022/11/11 03:51:54;;;;;;;87.77;35.73;;;;;;;;;;5094256;28;20756;-72
2022/11/11 03:54:19;;;;;;;95.23;36.87;;;;;;;;;;5109237;28;20457;-71
2022/11/11 03:56:44;;;;;;;93.23;36.40;;;;;;;;;;5113016;27;20464;-70
2022/11/11 03:59:10;;;;;;;89.37;36.33;;;;;;;;;;5085431;28;20078;-72
2022/11/11 04:16:04;;;;;;;93.60;35.45;;;;;;;;;;5106980;27;20036;-72
2022/11/11 04:18:01;;;;;;;86.47;35.60;;;;;;;;;;5105726;27;20053;-72
2022/11/11 04:23:10;;;;;;;89.20;34.85;;;;;;;;;;5106038;27;20077;-72
2022/11/11 04:25:48;;;;;;;92.40;36.77;;;;;;;;;;5106850;27;20055;-70
2022/11/11 04:30:56;;;;;;;90.95;35.42;;;;;;;;;;5108671;27;20034;-72
2022/11/11 04:33:22;;;;;;;88.63;35.00;;;;;;;;;;5102643;27;20028;-73
2022/11/11 04:35:50;;;;;;;87.73;35.77;;;;;;;;;;5118341;27;20033;-73
2022/11/11 04:41:02;;;;;;;95.00;37.00;;;;;;;9.90;nan;102045.22;5108132;27;20166;-72
2022/11/11 04:43:28;;;;;;;92.60;36.25;;;;;;;;;;5103923;27;20031;-72
2022/11/11 04:45:57;;;;;;;97.25;39.17;;;;;;;;;;5090548;28;20030;-72
2022/11/11 04:48:22;;;;;;;95.57;36.65;;;;;;;;;;5088409;27;20027;-73
2022/11/11 04:50:47;;;;;;;101.85;38.20;;;;;;;;;;5100380;27;20575;-73
2022/11/11 04:53:13;;;;;;;104.50;39.03;;;;;;;;;;5089939;27;20068;-72
2022/11/11 04:58:24;;;;;;;96.43;36.97;;;;;;;;;;5110684;27;20029;-72
2022/11/11 05:00:50;;;;;;;97.72;39.88;;;;;;;;;;5103882;27;20055;-73
2022/11/11 05:03:16;;;;;;;99.73;37.83;;;;;;;;;;5090773;27;20100;-72
2022/11/11 05:11:09;;;;;;;97.85;38.88;;;;;;;;;;5115365;27;20086;-73
2022/11/11 05:21:49;;;;;;;108.15;40.80;;;;;;;;;;5110726;27;20035;-74
2022/11/11 05:26:58;;;;;;;105.63;38.92;;;;;;;;;;5107721;27;20082;-75
2022/11/11 05:29:23;;;;;;;108.93;39.63;;;;;;;;;;5110475;27;20055;-75
2022/11/11 05:31:49;;;;;;;117.23;42.00;;;;;;;;;;5106294;27;20024;-74
2022/11/11 05:34:14;;;;;;;114.10;40.10;;;;;;;;;;5110349;28;20024;-74
2022/11/11 05:36:39;;;;;;;115.77;42.37;;;;;;;;;;5115726;27;20760;-74
2022/11/11 05:39:04;;;;;;;123.40;41.37;;;;;;;;;;5098268;27;20493;-75
2022/11/11 05:41:29;;;;;;;118.73;40.97;;;;;;;;;;5083767;28;20047;-74
2022/11/11 05:43:55;;;;;;;124.47;43.10;;;;;;;;;;5106962;27;20023;-74
2022/11/11 05:46:20;;;;;;;118.13;43.40;;;;;;;;;;5109217;27;20294;-74
2022/11/11 05:51:29;;;;;;;129.73;44.33;;;;;;;;;;5108062;27;20085;-74
2022/11/11 05:53:56;;;;;;;123.97;42.07;;;;;;;;;;5108363;28;20027;-74
2022/11/11 05:58:56;;;;;;;132.70;44.42;;;;;;;;;;5461748;22;20085;-71
2022/11/11 06:01:22;;;;;;;131.63;45.17;;;;;;;;;;4986943;28;20140;-72
2022/11/11 06:03:47;;;;;;;133.63;45.65;;;;;;;;;;5006689;28;20033;-73
2022/11/11 06:06:12;;;;;;;128.23;43.30;;;;;;;;;;4991083;28;20053;-73
2022/11/11 06:08:38;;;;;;;128.23;44.72;;;;;;;;;;5003897;28;20287;-73
2022/11/11 06:11:03;;;;;;;120.70;42.55;;;;;;;;;;4987059;28;20034;-78
2022/11/11 06:13:28;;;;;;;116.95;40.58;;;;;;;;;;4990336;28;20030;-76
2022/11/11 06:15:55;;;;;;;113.77;41.00;;;;;;;;;;4988205;28;20091;-76
2022/11/11 06:18:20;;;;;;;120.60;39.78;;;;;;;;;;5007117;28;20033;-77
2022/11/11 06:20:45;;;;;;;102.33;37.33;;;;;;;;;;4989812;28;20061;-77
2022/11/11 06:23:10;;;;;;;119.80;40.75;;;;;;;;;;5004651;28;20030;-76
2022/11/11 06:28:19;;;;;;;101.57;35.35;;;;;;;;;;5008733;28;20033;-78
2022/11/11 06:30:45;;;;;;;93.17;34.47;;;;;;;;;;5013336;28;20022;-75
2022/11/11 06:33:10;;;;;;;84.40;33.70;;;;;;;;;;5004100;28;20366;-76
2022/11/11 06:35:36;;;;;;;95.88;34.97;;;;;;;;;;5005877;28;20030;-76
2022/11/11 06:38:02;;;;;;;99.85;35.83;;;;;;;;;;5005209;28;20026;-77
2022/11/11 06:40:29;;;;;;;96.95;34.95;;;;;;;;;;5005172;28;20021;-78
2022/11/11 06:42:54;;;;;;;94.15;36.50;;;;;;;;;;4983350;28;20464;-77
2022/11/11 06:45:19;;;;;;;106.70;36.30;;;;;;;;;;4988268;28;20040;-76
2022/11/11 06:47:45;;;;;;;94.70;35.20;;;;;;;;;;5005007;28;20030;-77
2022/11/11 06:50:10;;;;;;;105.57;39.03;;;;;;;;;;5003998;28;20338;-77
2022/11/11 06:52:35;;;;;;;111.30;38.10;;;;;;;;;;4982929;28;20292;-71
2022/11/11 06:55:00;;;;;;;113.63;39.80;;;;;;;;;;5011707;28;20278;-70
2022/11/11 06:57:26;;;;;;;111.73;37.13;;;;;;;;;;4986453;28;20365;-71
2022/11/11 06:59:51;;;;;;;104.13;37.00;;;;;;;;;;5007555;28;20117;-71
2022/11/11 07:02:17;;;;;;;109.97;37.53;;;;;;;;;;5004506;28;20279;-71
2022/11/11 07:04:42;;;;;;;110.07;37.28;;;;;;;;;;4988790;28;20311;-71
2022/11/11 07:07:07;;;;;;;104.77;36.93;;;;;;;;;;5004254;28;20056;-69
2022/11/11 07:09:32;;;;;;;90.47;33.60;;;;;;;;;;5005637;28;20070;-69
2022/11/11 07:11:58;;;;;;;89.63;33.23;;;;;;;;;;5009055;28;20041;-70
2022/11/11 07:14:23;;;;;;;85.88;32.95;;;;;;;;;;5005237;28;20053;-70
2022/11/11 07:16:49;;;;;;;87.23;33.53;;;;;;;;;;5009612;28;20034;-70
2022/11/11 07:19:14;;;;;;;97.43;34.40;;;;;;;;;;5009340;28;20678;-70
2022/11/11 07:21:39;;;;;;;93.13;34.53;;;;;;;;;;5009473;28;20041;-70
2022/11/11 07:24:05;;;;;;;96.97;35.53;;;;;;;;;;4987883;28;20254;-69
2022/11/11 07:26:30;;;;;;;100.90;34.40;;;;;;;;;;5006259;28;20034;-69
2022/11/11 07:28:55;;;;;;;90.97;34.47;;;;;;;;;;5011792;28;20295;-70
2022/11/11 07:31:21;;;;;;;81.68;33.42;;;;;;;;;;5010042;28;20081;-70
2022/11/11 07:33:46;;;;;;;97.00;35.07;;;;;;;;;;5009198;28;20030;-69
2022/11/11 07:36:11;;;;;;;91.17;34.37;;;;;;;;;;5006917;28;20030;-70
2022/11/11 07:38:36;;;;;;;112.60;36.93;;;;;;;;;;5003421;28;20026;-70
2022/11/11 07:41:01;;;;;;;103.37;37.33;;;;;;;;;;5010845;28;20033;-71
2022/11/11 07:43:27;;;;;;;109.38;37.38;;;;;;;;;;5012736;28;20025;-70
2022/11/11 07:45:52;;;;;;;105.07;37.40;;;;;;;;;;4992948;28;20034;-72
2022/11/11 07:48:17;;;;;;;100.47;34.87;;;;;;;;;;5010493;28;20298;-69
2022/11/11 07:50:42;;;;;;;102.68;36.17;;;;;;;;;;5010826;28;20064;-71
2022/11/11 07:53:08;;;;;;;94.77;35.17;;;;;;;;;;5007628;28;20137;-69
2022/11/11 07:55:33;;;;;;;96.23;35.33;;;;;;;;;;5010267;28;20349;-70
2022/11/11 07:57:58;;;;;;;96.87;34.90;;;;;;;;;;5011677;28;20104;-70
2022/11/11 08:00:24;;;;;;;97.63;35.63;;;;;;;;;;5012229;28;20483;-72
2022/11/11 08:02:49;;;;;;;86.32;33.85;;;;;;;;;;4991758;28;20036;-72
2022/11/11 08:05:15;;;;;;;87.20;34.22;;;;;;;;;;5015105;28;20026;-71
2022/11/11 08:07:41;;;;;;;83.60;33.63;;;;;;;;;;5006001;28;20030;-71
2022/11/11 08:10:07;;;;;;;81.45;32.58;;;;;;;;;;5002484;28;20027;-71
2022/11/11 08:15:16;;;;;;;89.68;33.42;;;;;;;;;;5005869;28;20415;-71
2022/11/11 08:17:41;;;;;;;90.80;35.47;;;;;;;;;;5006269;28;20033;-71
2022/11/11 08:20:08;;;;;;;84.27;34.80;;;;;;;;;;5003867;28;20355;-71
2022/11/11 08:22:40;;;;;;;90.53;33.90;;;;;;;;;;5006660;28;20029;-71
2022/11/11 08:25:09;;;;;;;85.65;34.40;;;;;;;;;;5013099;28;20399;-71
2022/11/11 08:27:34;;;;;;;89.00;33.78;;;;;;;;;;5010608;28;20032;-72
2022/11/11 08:30:00;;;;;;;82.57;33.47;;;;;;;;;;5010698;28;20030;-71
2022/11/11 08:32:25;;;;;;;78.60;31.95;;;;;;;;;;4995168;28;20025;-71
2022/11/11 08:34:50;;;;;;;74.53;31.47;;;;;;;;;;5006050;28;20029;-71
2022/11/11 08:37:16;;;;;;;68.03;30.00;;;;;;;;;;5014370;28;20089;-72
2022/11/11 08:39:41;;;;;;;68.27;30.33;;;;;;;;;;5004785;28;20033;-71
2022/11/11 08:42:06;;;;;;;71.43;29.60;;;;;;;;;;5010653;28;20048;-71
2022/11/11 08:44:31;;;;;;;71.68;30.83;;;;;;;;;;5015867;28;20378;-71
2022/11/11 08:46:57;;;;;;;68.35;29.90;;;;;;;;;;5013293;28;20025;-71
2022/11/11 08:49:22;;;;;;;67.97;29.33;;;;;;;;;;5008172;28;20023;-71
2022/11/11 08:51:47;;;;;;;73.10;29.17;;;;;;;;;;5014707;28;20446;-71
2022/11/11 08:54:13;;;;;;;64.00;29.30;;;;;;;;;;5011710;28;20045;-72
2022/11/11 08:56:39;;;;;;;67.60;28.10;;;;;;;;;;5011825;28;20271;-71
2022/11/11 08:59:04;;;;;;;59.38;28.23;;;;;;;;;;5011494;28;20290;-73
2022/11/11 09:01:29;;;;;;;60.00;27.27;;;;;;;;;;4985581;28;20478;-74
2022/11/11 09:03:54;;;;;;;68.47;29.03;;;;;;;;;;5012471;28;20322;-71
2022/11/11 09:06:20;;;;;;;62.70;28.37;;;;;;;;;;5011129;28;20772;-73
2022/11/11 09:08:45;;;;;;;66.93;29.10;;;;;;;;;;5005859;28;20026;-72
2022/11/11 09:11:11;;;;;;;69.53;30.90;;;;;;;;;;5007269;28;20298;-71
2022/11/11 09:13:36;;;;;;;68.35;29.65;;;;;;;;;;5005141;28;20022;-72
2022/11/11 09:16:01;;;;;;;62.00;28.90;;;;;;;;;;4991006;28;20430;-73
2022/11/11 09:18:26;;;;;;;55.73;26.20;;;;;;;;;;4987201;28;20037;-73
2022/11/11 09:20:52;;;;;;;59.00;27.47;;;;;;;;;;4992705;28;20033;-72
2022/11/11 09:23:17;;;;;;;64.95;28.45;;;;;;;;;;5000618;28;20298;-72
2022/11/11 09:25:42;;;;;;;54.65;25.40;;;;;;;;;;5004261;28;20018;-72
2022/11/11 09:28:07;;;;;;;52.80;25.90;;;;;;;;;;4987083;28;20399;-74
2022/11/11 09:30:33;;;;;;;50.87;25.27;;;;;;;;;;5013262;28;20426;-72
2022/11/11 09:33:02;;;;;;;56.77;25.50;;;;;;;;;;5012565;28;20097;-72
2022/11/11 09:35:27;;;;;;;60.22;26.75;;;;;;;;;;4995782;28;20565;-72
2022/11/11 09:37:56;;;;;;;55.70;25.95;;;;;;;;;;5013718;28;20038;-73
2022/11/11 09:40:23;;;;;;;53.00;26.63;;;;;;;;;;5013452;28;20021;-72
2022/11/11 09:42:58;;;;;;;59.60;27.13;;;;;;;;;;4994400;28;20135;-72
2022/11/11 09:45:33;;;;;;;59.15;26.73;;;;;;;;;;4995990;28;20402;-71
2022/11/11 09:48:07;;;;;;;59.60;27.90;;;;;;;;;;5008755;28;20049;-72
2022/11/11 09:50:34;;;;;;;53.22;26.23;;;;;;;;;;5016847;28;20157;-72
2022/11/11 09:53:02;;;;;;;54.53;25.65;;;;;;;;;;5005575;28;20108;-73
2022/11/11 09:55:37;;;;;;;58.38;26.10;;;;;;;;;;5009796;28;20033;-72
2022/11/11 09:58:25;;;;;;;54.53;26.70;;;;;;;;;;5007839;28;20048;-73
2022/11/11 10:00:54;;;;;;;55.20;26.97;;;;;;;;;;4976551;28;20038;-73
2022/11/11 10:03:21;;;;;;;52.92;25.60;;;;;;;;;;5013578;28;20041;-72
2022/11/11 10:06:04;;;;;;;55.05;25.67;;;;;;;;;;5011189;28;20485;-72
2022/11/11 10:08:34;;;;;;;50.08;24.50;;;;;;;;;;5007074;28;20026;-72
2022/11/11 10:10:59;;;;;;;;;;;;;;;;;;5008342;28;20029;-71
2022/11/11 10:13:35;;;;;;;49.88;23.45;;;;;;;;;;5014265;28;19936;-71
2022/11/11 10:16:00;;;;;;;50.53;23.95;;;;;;;;;;5012467;28;20018;-70
2022/11/11 10:18:33;;;;;;;47.70;23.33;;;;;;;;;;4991992;28;20084;-72
2022/11/11 10:21:00;;;;;;;48.53;24.55;;;;;;;;;;5010425;28;20275;-71
2022/11/11 10:23:29;;;;;;;49.35;23.58;;;;;;;;;;5009894;28;20067;-71
2022/11/11 10:25:54;;;;;;;;;;;;;;;;;;5007412;28;20041;-71
2022/11/11 10:28:21;;;;;;;46.00;22.97;;;;;;;;;;5004445;28;19913;-69
2022/11/11 10:30:47;;;;;;;42.63;21.27;;;;;;;;;;5011921;28;20494;-70
2022/11/11 10:33:21;;;;;;;43.85;22.95;;;;;;;;;;5007706;28;20051;-71
2022/11/11 10:35:47;;;;;;;48.00;24.88;;;;;;;;;;5004481;28;20364;-70
2022/11/11 10:38:12;;;;;;;48.75;23.52;;;;;;;;;;5005769;28;20033;-70
2022/11/11 10:40:42;;;;;;;42.77;22.97;;;;;;;;;;5008490;28;20022;-70
2022/11/11 10:43:14;;;;;;;44.08;22.77;;;;;;;;;;5008718;28;20088;-71
2022/11/11 10:45:50;;;;;;;42.50;22.05;;;;;;;;;;5007950;28;20680;-69
2022/11/11 10:48:17;;;;;;;40.53;21.23;;;;;;;;;;5007121;28;20038;-71
2022/11/11 10:50:51;;;;;;;39.55;21.15;;;;;;;;;;5009691;28;20026;-71
2022/11/11 10:53:19;;;;;;;44.97;22.65;;;;;;;;;;5005146;28;20487;-71
2022/11/11 10:55:56;;;;;;;43.58;22.55;;;;;;;;;;5007414;28;20387;-72
2022/11/11 10:58:21;;;;;;;38.65;20.88;;;;;;;;;;5012909;28;20053;-71
2022/11/11 11:00:47;;;;;;;38.87;21.47;;;;;;;;;;5005256;28;20033;-74
2022/11/11 11:03:29;;;;;;;41.63;20.95;;;;;;;;;;5014970;28;20040;-73
2022/11/11 11:05:58;;;;;;;38.85;20.40;;;;;;;;;;5008964;28;20484;-73
2022/11/11 11:08:25;;;;;;;38.07;19.60;;;;;;;;;;5010782;28;20476;-73
2022/11/11 11:10:56;;;;;;;34.33;18.85;;;;;;;;;;5013221;28;20037;-73
2022/11/11 11:13:26;;;;;;;39.10;21.30;;;;;;;;;;4985643;28;20542;-72
2022/11/11 11:15:55;;;;;;;36.03;17.98;;;;;;;;;;5011879;28;20057;-72
2022/11/11 11:18:20;;;;;;;39.80;20.77;;;;;;;;;;5008236;28;20026;-73
2022/11/11 11:21:05;;;;;;;151.48;75.57;;;;;;;;;;5004802;28;20037;-74
2022/11/11 11:23:34;;;;;;;37.28;19.90;;;;;;;;;;5003531;28;20025;-72
2022/11/11 11:26:01;;;;;;;;;;;;;;;;;;5010505;28;20034;-71
2022/11/11 11:28:27;;;;;;;29.77;16.95;;;;;;;;;;5008817;28;19914;-72
2022/11/11 11:31:02;;;;;;;36.47;17.93;;;;;;;;;;5010472;28;20356;-73
2022/11/11 11:33:47;;;;;;;117.72;50.63;;;;;;;;;;5010877;28;20389;-73
2022/11/11 11:36:15;;;;;;;53.95;26.63;;;;;;;;;;5004754;28;20084;-73
2022/11/11 11:38:42;;;;;;;133.52;56.03;;;;;;;;;;4997554;28;20041;-73
2022/11/11 11:41:07;;;;;;;32.97;17.88;;;;;;;;;;5004995;28;20021;-76
2022/11/11 11:43:37;;;;;;;38.00;18.93;;;;;;;;;;5008653;28;20088;-76
2022/11/11 11:46:02;;;;;;;;;;;;;;;;;;5008658;28;20283;-76
2022/11/11 11:48:28;;;;;;;67.07;34.67;;;;;;;;;;5008933;28;19917;-76
2022/11/11 11:50:56;;;;;;;25.65;13.60;;;;;;;;;;4998234;28;20022;-71
2022/11/11 11:53:28;;;;;;;22.83;11.68;;;;;;;;;;5009700;28;20025;-71
2022/11/11 11:56:02;;;;;;;19.98;10.30;;;;;;;;;;5007520;28;20491;-70
2022/11/11 11:58:50;;;;;;;20.40;11.52;;;;;;;;;;5009427;28;20499;-70
2022/11/11 12:01:34;;;;;;;31.67;15.63;;;;;;;;;;4999891;28;20119;-74
2022/11/11 12:04:11;;;;;;;41.20;19.35;;;;;;;;;;5001511;28;20026;-73
2022/11/11 12:06:42;;;;;;;37.40;18.40;;;;;;;;;;5016422;28;20049;-73
2022/11/11 12:09:16;;;;;;;27.58;14.18;;;;;;;;;;5014183;28;20034;-73
2022/11/11 12:11:42;;;;;;;34.28;17.20;;;;;;;;;;5014986;28;20049;-73
2022/11/11 12:14:42;;;;;;;31.73;13.80;;;;;;;;;;5016276;28;20332;-73
2022/11/11 12:17:31;;;;;;;76.88;34.13;;;;;;;;;;4951830;28;20027;-73
2022/11/11 12:20:01;;;;;;;27.58;14.98;;;;;;;;;;4968903;28;20035;-72
2022/11/11 12:22:43;;;;;;;27.48;12.77;;;;;;;;;;4976788;28;20026;-73
2022/11/11 12:25:11;;;;;;;23.25;13.30;;;;;;;;;;4975460;28;20500;-73
2022/11/11 12:27:42;;;;;;;48.58;21.35;;;;;;;;;;4956463;28;20042;-73
2022/11/11 12:30:14;;;;;;;26.25;14.57;;;;;;;;;;4971343;28;20078;-73
2022/11/11 12:32:42;;;;;;;16.80;10.40;;;;;;;;;;4962727;28;20090;-74
2022/11/11 12:35:13;;;;;;;20.00;11.13;;;;;;;;;;4969421;28;20065;-71
2022/11/11 12:37:50;;;;;;;18.63;11.07;;;;;;;;;;4953083;28;20039;-72
2022/11/11 12:40:22;;;;;;;64.72;25.48;;;;;;;;;;4951409;28;20031;-72
2022/11/11 12:43:07;;;;;;;20.08;9.85;;;;;;;;;;4965886;28;20455;-72
2022/11/11 12:45:35;;;;;;;16.02;9.68;;;;;;;;;;4960917;28;20701;-72
2022/11/11 12:48:09;;;;;;;19.10;10.40;;;;;;;;;;4959761;28;20069;-72
2022/11/11 12:51:00;;;;;;;16.55;9.07;;;;;;;;;;4973515;28;20080;-72
2022/11/11 12:53:35;;;;;;;17.77;9.68;;;;;;;;;;5006131;28;20446;-73
2022/11/11 12:56:13;;;;;;;15.10;9.40;;;;;;;;;;4998606;28;20034;-72
2022/11/11 12:58:57;;;;;;;13.65;8.93;;;;;;;;;;5008741;28;20476;-72
2022/11/11 13:01:41;;;;;;;18.17;9.57;;;;;;;;;;5010698;28;20022;-71
2022/11/11 13:04:18;;;;;;;18.92;10.32;;;;;;;;;;5008709;28;20033;-71
2022/11/11 13:06:55;;;;;;;17.88;10.85;;;;;;;;;;4999698;28;20048;-71
2022/11/11 13:09:39;;;;;;;18.00;11.00;;;;;;;;;;5002328;28;20155;-71
2022/11/11 13:12:10;;;;;;;21.48;12.32;;;;;;;;;;5007188;28;20030;-71
2022/11/11 13:14:38;;;;;;;20.38;11.15;;;;;;;;;;4987342;28;20439;-72
2022/11/11 13:17:08;;;;;;;24.25;10.68;;;;;;;;;;5005113;28;20060;-71
2022/11/11 13:19:43;;;;;;;22.88;11.75;;;;;;;;;;5000381;28;20479;-71
2022/11/11 13:22:16;;;;;;;19.02;11.20;;;;;;;;;;5009170;28;20053;-71
2022/11/11 13:24:41;;;;;;;24.17;13.85;;;;;;;;;;4981727;28;20022;-71
2022/11/11 13:27:12;;;;;;;19.30;10.75;;;;;;;;;;5001974;28;20076;-71
2022/11/11 13:29:46;;;;;;;18.65;11.02;;;;;;;;;;5004802;28;20029;-71
2022/11/11 13:32:13;;;;;;;20.27;10.35;;;;;;;;;;5005429;28;20128;-70
2022/11/11 13:34:39;;;;;;;31.50;15.98;;;;;;;;;;5002034;28;20042;-71
2022/11/11 13:37:06;;;;;;;22.88;12.57;;;;;;;;;;5001694;28;20028;-71
2022/11/11 13:39:58;;;;;;;23.48;12.15;;;;;;;;;;5003056;28;20040;-71
2022/11/11 13:42:26;;;;;;;20.70;11.77;;;;;;;;;;4994277;28;20525;-71
2022/11/11 13:44:52;;;;;;;27.13;12.70;;;;;;;;;;5005000;28;20054;-72
2022/11/11 13:47:19;;;;;;;27.05;13.45;;;;;;;;;;4995221;28;20244;-75
2022/11/11 13:49:56;;;;;;;24.00;13.48;;;;;;;;;;5011235;28;20033;-74
2022/11/11 13:52:23;;;;;;;27.38;12.38;;;;;;;;;;5012479;28;20716;-73
2022/11/11 13:54:51;;;;;;;25.33;14.23;;;;;;;;;;5017166;28;20030;-72
2022/11/11 13:57:20;;;;;;;21.60;11.43;;;;;;;;;;4995346;28;20058;-74
2022/11/11 13:59:45;;;;;;;;;;;;;;;;;;4991915;28;20037;-73
2022/11/11 14:02:19;;;;;;;24.63;12.93;;;;;;;;;;4986371;28;19917;-73
2022/11/11 14:05:00;;;;;;;30.48;17.75;;;;;;;;;;5009377;28;20046;-73
2022/11/11 14:07:46;;;;;;;28.58;15.30;;;;;;;;;;5005715;28;20026;-72
2022/11/11 14:10:17;;;;;;;20.13;11.43;;;;;;;;;;5008517;28;20128;-73
2022/11/11 14:12:46;;;;;;;33.13;17.42;;;;;;;13.52;nan;102208.22;5011599;28;20082;-73
2022/11/11 14:15:30;;;;;;;23.98;11.65;;;;;;;;;;5005540;28;20037;-74
2022/11/11 14:17:56;;;;;;;31.45;13.68;;;;;;;;;;5011300;28;20093;-74
2022/11/11 14:20:37;;;;;;;18.00;10.90;;;;;;;;;;5005315;28;20068;-74
2022/11/11 14:23:22;;;;;;;26.55;11.93;;;;;;;;;;5009976;28;20827;-73
2022/11/11 14:26:08;;;;;;;24.98;11.48;;;;;;;;;;5004734;28;20700;-74
2022/11/11 14:28:40;;;;;;;26.33;13.75;;;;;;;;;;5005371;28;20092;-73
2022/11/11 14:31:11;;;;;;;20.15;10.77;;;;;;;;;;5005370;28;20033;-74
2022/11/11 14:33:52;;;;;;;25.27;12.93;;;;;;;;;;5002690;28;20124;-74
2022/11/11 14:36:23;;;;;;;26.70;11.88;;;;;;;;;;5006470;28;20034;-74
2022/11/11 14:38:52;;;;;;;19.23;11.80;;;;;;;;;;4998049;28;20062;-74
2022/11/11 14:41:36;;;;;;;16.23;10.10;;;;;;;;;;5002773;28;20104;-73
2022/11/11 14:44:20;;;;;;;32.42;12.32;;;;;;;;;;5010249;28;20017;-72
2022/11/11 14:47:08;;;;;;;26.05;14.00;;;;;;;;;;5005010;28;20026;-73
2022/11/11 14:49:42;;;;;;;22.10;11.63;;;;;;;;;;4979683;28;20387;-72
2022/11/11 14:52:17;;;;;;;21.35;11.88;;;;;;;;;;4990389;28;20168;-73
2022/11/11 14:54:42;;;;;;;23.88;13.50;;;;;;;;;;5001285;28;20026;-72
2022/11/11 14:57:14;;;;;;;30.50;14.37;;;;;;;;;;5004834;28;20041;-72
2022/11/11 14:59:39;;;;;;;28.67;12.90;;;;;;;;;;5009005;28;20291;-72
2022/11/11 15:02:12;;;;;;;29.37;14.37;;;;;;;;;;5007553;28;20044;-73
2022/11/11 15:04:37;;;;;;;35.33;17.20;;;;;;;;;;5009318;28;20374;-73
2022/11/11 15:07:03;;;;;;;35.90;16.13;;;;;;;;;;5007451;28;20105;-72
2022/11/11 15:09:31;;;;;;;33.90;16.30;;;;;;;;;;5007257;28;20034;-73
2022/11/11 15:12:06;;;;;;;38.85;19.90;;;;;;;;;;5004449;28;20492;-72
2022/11/11 15:14:43;;;;;;;39.40;18.17;;;;;;;;;;5005501;28;20026;-72
2022/11/11 15:17:23;;;;;;;50.67;21.90;;;;;;;;;;5008846;28;20483;-72
2022/11/11 15:19:48;;;;;;;56.78;23.70;;;;;;;;;;5004764;28;20034;-73
2022/11/11 15:22:23;;;;;;;47.27;22.17;;;;;;;;;;5004617;28;20498;-74
2022/11/11 15:24:59;;;;;;;49.65;22.00;;;;;;;;;;4990224;28;20023;-74
2022/11/11 15:27:35;;;;;;;51.00;23.00;;;;;;;;;;5010835;28;20486;-74
2022/11/11 15:30:14;;;;;;;51.90;23.08;;;;;;;;;;5005979;28;20373;-74
2022/11/11 15:32:40;;;;;;;;;;;;;;;;;;5008651;28;20087;-73
2022/11/11 15:35:28;;;;;;;45.87;22.70;;;;;;;;;;5012384;28;19999;-72
2022/11/11 15:37:55;;;;;;;48.63;22.08;;;;;;;;;;5005607;28;20022;-72
2022/11/11 15:40:25;;;;;;;40.72;21.55;;;;;;;;;;5008265;28;20052;-72
2022/11/11 15:42:50;;;;;;;65.65;29.67;;;;;;;;;;4994010;28;20033;-73